sensor_id;sensor_type;location;lat;lon;timestamp;pressure;altitude;pressure_sealevel;temperature;humidity
61109;BME280;46995;55.740;37.402;2023-08-01T00:00:31;98910.88;;;16.28;80.37
61109;BME280;46995;55.740;37.402;2023-08-01T00:02:57;98923.59;;;16.26;80.38
61109;BME280;46995;55.740;37.402;2023-08-01T00:05:23;98916.75;;;16.23;79.12
61109;BME280;46995;55.740;37.402;2023-08-01T00:07:49;98917.31;;;16.19;79.74
61109;BME280;46995;55.740;37.402;2023-08-01T00:10:14;98916.50;;;16.18;80.35
61109;BME280;46995;55.740;37.402;2023-08-01T00:12:41;98913.19;;;16.16;80.07
61109;BME280;46995;55.740;37.402;2023-08-01T00:15:07;98916.03;;;16.15;80.11
61109;BME280;46995;55.740;37.402;2023-08-01T00:17:33;98918.03;;;16.13;79.89
61109;BME280;46995;55.740;37.402;2023-08-01T00:19:58;98921.75;;;16.12;80.24
61109;BME280;46995;55.740;37.402;2023-08-01T00:22:24;98921.91;;;16.10;79.49
61109;BME280;46995;55.740;37.402;2023-08-01T00:24:49;98911.44;;;16.08;79.59
61109;BME280;46995;55.740;37.402;2023-08-01T00:27:15;98909.78;;;16.07;80.01
61109;BME280;46995;55.740;37.402;2023-08-01T00:29:41;98917.13;;;16.05;79.75
61109;BME280;46995;55.740;37.402;2023-08-01T00:32:07;98913.81;;;16.03;80.49
61109;BME280;46995;55.740;37.402;2023-08-01T00:34:32;98921.81;;;16.03;80.28
61109;BME280;46995;55.740;37.402;2023-08-01T00:36:58;98928.13;;;16.02;79.82
61109;BME280;46995;55.740;37.402;2023-08-01T00:39:23;98922.81;;;16.02;79.95
61109;BME280;46995;55.740;37.402;2023-08-01T00:41:49;98920.34;;;16.01;80.37
61109;BME280;46995;55.740;37.402;2023-08-01T00:44:14;98921.34;;;16.00;80.06
61109;BME280;46995;55.740;37.402;2023-08-01T00:46:40;98921.53;;;15.98;80.53
61109;BME280;46995;55.740;37.402;2023-08-01T00:49:06;98920.69;;;15.98;80.48
61109;BME280;46995;55.740;37.402;2023-08-01T00:51:33;98923.53;;;15.96;80.36
61109;BME280;46995;55.740;37.402;2023-08-01T00:53:59;98922.91;;;15.94;80.15
61109;BME280;46995;55.740;37.402;2023-08-01T00:56:25;98928.41;;;15.93;80.55
61109;BME280;46995;55.740;37.402;2023-08-01T00:58:51;98928.41;;;15.93;80.45
61109;BME280;46995;55.740;37.402;2023-08-01T01:01:16;98925.56;;;15.94;81.05
61109;BME280;46995;55.740;37.402;2023-08-01T01:03:42;98931.91;;;15.93;80.94
61109;BME280;46995;55.740;37.402;2023-08-01T01:08:41;98938.44;;;15.91;81.27
61109;BME280;46995;55.740;37.402;2023-08-01T01:11:07;98934.94;;;15.90;80.85
61109;BME280;46995;55.740;37.402;2023-08-01T01:13:33;98933.28;;;15.89;80.56
61109;BME280;46995;55.740;37.402;2023-08-01T01:16:00;98929.94;;;15.87;80.51
61109;BME280;46995;55.740;37.402;2023-08-01T01:18:25;98931.16;;;15.85;80.59
61109;BME280;46995;55.740;37.402;2023-08-01T01:20:51;98933.16;;;15.83;80.25
61109;BME280;46995;55.740;37.402;2023-08-01T01:23:17;98938.03;;;15.79;80.80
61109;BME280;46995;55.740;37.402;2023-08-01T01:25:43;98938.84;;;15.80;81.43
61109;BME280;46995;55.740;37.402;2023-08-01T01:28:10;98939.31;;;15.83;81.62
61109;BME280;46995;55.740;37.402;2023-08-01T01:30:36;98935.66;;;15.84;81.85
61109;BME280;46995;55.740;37.402;2023-08-01T01:33:02;98934.81;;;15.84;81.95
61109;BME280;46995;55.740;37.402;2023-08-01T01:35:29;98934.16;;;15.82;81.44
61109;BME280;46995;55.740;37.402;2023-08-01T01:37:54;98931.03;;;15.78;81.83
61109;BME280;46995;55.740;37.402;2023-08-01T01:40:20;98926.72;;;15.77;80.75
61109;BME280;46995;55.740;37.402;2023-08-01T01:42:46;98926.09;;;15.75;81.16
61109;BME280;46995;55.740;37.402;2023-08-01T01:45:11;98929.75;;;15.74;81.86
61109;BME280;46995;55.740;37.402;2023-08-01T01:47:37;98929.75;;;15.74;81.16
61109;BME280;46995;55.740;37.402;2023-08-01T01:50:03;98930.91;;;15.72;81.77
61109;BME280;46995;55.740;37.402;2023-08-01T01:52:30;98936.25;;;15.72;81.95
61109;BME280;46995;55.740;37.402;2023-08-01T01:54:56;98932.13;;;15.69;81.41
61109;BME280;46995;55.740;37.402;2023-08-01T01:57:21;98932.94;;;15.70;81.24
61109;BME280;46995;55.740;37.402;2023-08-01T01:59:47;98941.94;;;15.68;81.37
61109;BME280;46995;55.740;37.402;2023-08-01T02:02:13;98937.44;;;15.69;81.97
61109;BME280;46995;55.740;37.402;2023-08-01T02:04:40;98933.78;;;15.70;82.22
61109;BME280;46995;55.740;37.402;2023-08-01T02:07:06;98936.44;;;15.70;81.64
61109;BME280;46995;55.740;37.402;2023-08-01T02:09:31;98933.78;;;15.70;81.76
61109;BME280;46995;55.740;37.402;2023-08-01T02:11:57;98933.78;;;15.70;81.75
61109;BME280;46995;55.740;37.402;2023-08-01T02:14:23;98936.25;;;15.72;81.16
61109;BME280;46995;55.740;37.402;2023-08-01T02:16:49;98937.91;;;15.73;81.63
61109;BME280;46995;55.740;37.402;2023-08-01T02:19:14;98933.41;;;15.73;81.17
61109;BME280;46995;55.740;37.402;2023-08-01T02:21:40;98929.91;;;15.73;81.31
61109;BME280;46995;55.740;37.402;2023-08-01T02:24:06;98928.09;;;15.73;80.99
61109;BME280;46995;55.740;37.402;2023-08-01T02:26:31;98935.06;;;15.74;81.11
61109;BME280;46995;55.740;37.402;2023-08-01T02:28:57;98935.91;;;15.75;81.85
61109;BME280;46995;55.740;37.402;2023-08-01T02:31:23;98938.38;;;15.76;82.04
61109;BME280;46995;55.740;37.402;2023-08-01T02:33:48;98925.72;;;15.78;81.60
61109;BME280;46995;55.740;37.402;2023-08-01T02:36:14;98930.03;;;15.79;81.04
61109;BME280;46995;55.740;37.402;2023-08-01T02:38:40;98931.50;;;15.82;81.14
61109;BME280;46995;55.740;37.402;2023-08-01T02:41:05;98935.00;;;15.82;81.36
61109;BME280;46995;55.740;37.402;2023-08-01T02:43:31;98934.66;;;15.85;80.91
61109;BME280;46995;55.740;37.402;2023-08-01T02:45:56;98943.91;;;15.89;81.53
61109;BME280;46995;55.740;37.402;2023-08-01T02:48:22;98943.56;;;15.92;82.13
61109;BME280;46995;55.740;37.402;2023-08-01T02:50:47;98932.56;;;15.95;82.08
61109;BME280;46995;55.740;37.402;2023-08-01T02:53:13;98933.19;;;15.97;81.91
61109;BME280;46995;55.740;37.402;2023-08-01T02:55:39;98942.50;;;16.01;80.49
61109;BME280;46995;55.740;37.402;2023-08-01T02:58:05;98943.13;;;16.03;80.52
61109;BME280;46995;55.740;37.402;2023-08-01T03:00:31;98943.41;;;16.08;81.30
61109;BME280;46995;55.740;37.402;2023-08-01T03:02:57;98935.69;;;16.14;81.33
61109;BME280;46995;55.740;37.402;2023-08-01T03:05:22;98944.97;;;16.18;81.76
61109;BME280;46995;55.740;37.402;2023-08-01T03:07:48;98938.28;;;16.22;81.69
61109;BME280;46995;55.740;37.402;2023-08-01T03:10:14;98944.34;;;16.30;82.12
61109;BME280;46995;55.740;37.402;2023-08-01T03:12:39;98938.13;;;16.38;81.81
61109;BME280;46995;55.740;37.402;2023-08-01T03:15:05;98939.41;;;16.42;81.27
61109;BME280;46995;55.740;37.402;2023-08-01T03:17:34;98942.97;;;16.49;81.80
61109;BME280;46995;55.740;37.402;2023-08-01T03:20:00;98950.88;;;16.57;81.96
61109;BME280;46995;55.740;37.402;2023-08-01T03:22:25;98949.19;;;16.64;82.12
61109;BME280;46995;55.740;37.402;2023-08-01T03:24:51;98946.41;;;16.72;82.26
61109;BME280;46995;55.740;37.402;2023-08-01T03:27:16;98946.28;;;16.80;82.50
61109;BME280;46995;55.740;37.402;2023-08-01T03:29:42;98947.84;;;16.89;81.84
61109;BME280;46995;55.740;37.402;2023-08-01T03:32:08;98957.41;;;16.99;81.81
61109;BME280;46995;55.740;37.402;2023-08-01T03:34:33;98948.25;;;17.08;81.26
61109;BME280;46995;55.740;37.402;2023-08-01T03:36:59;98956.78;;;17.18;81.85
61109;BME280;46995;55.740;37.402;2023-08-01T03:39:24;98957.31;;;17.28;81.38
61109;BME280;46995;55.740;37.402;2023-08-01T03:41:50;98958.88;;;17.37;81.44
61109;BME280;46995;55.740;37.402;2023-08-01T03:44:16;98956.72;;;17.47;80.99
61109;BME280;46995;55.740;37.402;2023-08-01T03:46:42;98953.91;;;17.55;81.24
61109;BME280;46995;55.740;37.402;2023-08-01T03:49:08;98962.44;;;17.65;81.45
61109;BME280;46995;55.740;37.402;2023-08-01T03:51:34;98962.34;;;17.73;81.09
61109;BME280;46995;55.740;37.402;2023-08-01T03:54:00;98961.19;;;17.83;80.93
61109;BME280;46995;55.740;37.402;2023-08-01T03:56:25;98965.38;;;17.92;80.49
61109;BME280;46995;55.740;37.402;2023-08-01T03:58:52;98971.59;;;17.99;80.54
61109;BME280;46995;55.740;37.402;2023-08-01T04:01:17;98974.34;;;18.05;80.75
61109;BME280;46995;55.740;37.402;2023-08-01T04:03:43;98973.34;;;18.13;80.44
61109;BME280;46995;55.740;37.402;2023-08-01T04:06:09;98979.59;;;18.20;79.97
61109;BME280;46995;55.740;37.402;2023-08-01T04:08:36;98984.78;;;18.28;80.06
61109;BME280;46995;55.740;37.402;2023-08-01T04:11:01;98988.31;;;18.35;79.93
61109;BME280;46995;55.740;37.402;2023-08-01T04:13:27;98981.81;;;18.44;80.05
61109;BME280;46995;55.740;37.402;2023-08-01T04:15:52;98983.13;;;18.55;80.00
61109;BME280;46995;55.740;37.402;2023-08-01T04:18:18;98983.78;;;18.63;79.83
61109;BME280;46995;55.740;37.402;2023-08-01T04:20:44;98980.78;;;18.73;79.67
61109;BME280;46995;55.740;37.402;2023-08-01T04:23:09;98975.06;;;18.83;79.07
61109;BME280;46995;55.740;37.402;2023-08-01T04:25:35;98975.53;;;18.93;79.12
61109;BME280;46995;55.740;37.402;2023-08-01T04:28:00;98989.19;;;19.04;78.65
61109;BME280;46995;55.740;37.402;2023-08-01T04:30:26;98977.06;;;19.15;78.64
61109;BME280;46995;55.740;37.402;2023-08-01T04:32:52;98978.13;;;19.27;78.19
61109;BME280;46995;55.740;37.402;2023-08-01T04:35:17;98968.69;;;19.38;77.53
61109;BME280;46995;55.740;37.402;2023-08-01T04:37:43;98974.31;;;19.50;77.26
61109;BME280;46995;55.740;37.402;2023-08-01T04:40:08;98973.09;;;19.59;77.01
61109;BME280;46995;55.740;37.402;2023-08-01T04:42:34;98976.63;;;19.66;76.56
61109;BME280;46995;55.740;37.402;2023-08-01T04:45:00;98968.38;;;19.74;76.76
61109;BME280;46995;55.740;37.402;2023-08-01T04:47:26;98974.16;;;19.84;76.47
61109;BME280;46995;55.740;37.402;2023-08-01T04:49:51;98985.72;;;19.91;76.15
61109;BME280;46995;55.740;37.402;2023-08-01T04:52:17;98979.53;;;19.97;75.70
61109;BME280;46995;55.740;37.402;2023-08-01T04:54:42;98980.56;;;20.03;75.64
61109;BME280;46995;55.740;37.402;2023-08-01T04:57:08;98978.28;;;20.13;75.39
61109;BME280;46995;55.740;37.402;2023-08-01T04:59:33;98986.13;;;20.21;75.13
61109;BME280;46995;55.740;37.402;2023-08-01T05:01:59;98982.41;;;20.28;74.82
61109;BME280;46995;55.740;37.402;2023-08-01T05:04:24;98973.34;;;20.36;74.74
61109;BME280;46995;55.740;37.402;2023-08-01T05:06:50;98973.13;;;20.44;74.52
61109;BME280;46995;55.740;37.402;2023-08-01T05:09:15;98972.06;;;20.52;74.49
61109;BME280;46995;55.740;37.402;2023-08-01T05:11:41;98978.25;;;20.59;73.96
61109;BME280;46995;55.740;37.402;2023-08-01T05:14:07;98974.53;;;20.66;73.69
61109;BME280;46995;55.740;37.402;2023-08-01T05:16:32;98975.13;;;20.75;73.09
61109;BME280;46995;55.740;37.402;2023-08-01T05:18:58;98971.59;;;20.81;72.77
61109;BME280;46995;55.740;37.402;2023-08-01T05:21:24;98981.06;;;20.90;72.46
61109;BME280;46995;55.740;37.402;2023-08-01T05:23:50;98983.53;;;20.98;72.05
61109;BME280;46995;55.740;37.402;2023-08-01T05:26:16;98986.19;;;21.05;72.62
61109;BME280;46995;55.740;37.402;2023-08-01T05:28:41;98990.50;;;21.12;71.62
61109;BME280;46995;55.740;37.402;2023-08-01T05:31:10;98993.81;;;21.14;71.05
61109;BME280;46995;55.740;37.402;2023-08-01T05:33:36;98982.66;;;21.18;70.90
61109;BME280;46995;55.740;37.402;2023-08-01T05:36:01;98988.00;;;21.24;70.70
61109;BME280;46995;55.740;37.402;2023-08-01T05:38:27;98998.69;;;21.31;70.46
61109;BME280;46995;55.740;37.402;2023-08-01T05:40:52;98991.44;;;21.38;70.45
61109;BME280;46995;55.740;37.402;2023-08-01T05:43:20;98977.56;;;21.41;70.10
61109;BME280;46995;55.740;37.402;2023-08-01T05:45:46;98985.81;;;21.46;70.10
61109;BME280;46995;55.740;37.402;2023-08-01T05:48:11;98993.44;;;21.49;70.96
61109;BME280;46995;55.740;37.402;2023-08-01T05:50:38;98992.81;;;21.53;70.38
61109;BME280;46995;55.740;37.402;2023-08-01T05:53:04;98993.81;;;21.59;69.72
61109;BME280;46995;55.740;37.402;2023-08-01T05:55:30;98995.63;;;21.65;69.52
61109;BME280;46995;55.740;37.402;2023-08-01T05:57:56;98995.34;;;21.73;69.48
61109;BME280;46995;55.740;37.402;2023-08-01T06:00:22;99000.50;;;21.81;68.73
61109;BME280;46995;55.740;37.402;2023-08-01T06:02:48;99002.91;;;21.89;69.25
61109;BME280;46995;55.740;37.402;2023-08-01T06:05:14;99000.00;;;21.98;68.39
61109;BME280;46995;55.740;37.402;2023-08-01T06:07:40;98997.03;;;22.06;68.26
61109;BME280;46995;55.740;37.402;2023-08-01T06:10:05;99000.91;;;22.10;67.79
61109;BME280;46995;55.740;37.402;2023-08-01T06:12:31;99000.50;;;22.13;68.19
61109;BME280;46995;55.740;37.402;2023-08-01T06:14:57;99000.00;;;22.22;68.00
61109;BME280;46995;55.740;37.402;2023-08-01T06:17:22;99000.53;;;22.31;67.15
61109;BME280;46995;55.740;37.402;2023-08-01T06:19:48;99006.91;;;22.36;67.09
61109;BME280;46995;55.740;37.402;2023-08-01T06:22:15;99003.94;;;22.45;68.15
61109;BME280;46995;55.740;37.402;2023-08-01T06:24:40;99001.78;;;22.53;66.64
61109;BME280;46995;55.740;37.402;2023-08-01T06:27:06;98999.03;;;22.60;66.12
61109;BME280;46995;55.740;37.402;2023-08-01T06:29:32;99001.50;;;22.61;64.96
61109;BME280;46995;55.740;37.402;2023-08-01T06:31:58;99003.13;;;22.62;65.40
61109;BME280;46995;55.740;37.402;2023-08-01T06:34:49;99000.59;;;22.67;65.34
61109;BME280;46995;55.740;37.402;2023-08-01T06:37:14;99001.41;;;22.74;65.37
61109;BME280;46995;55.740;37.402;2023-08-01T06:39:40;99006.13;;;22.79;63.88
61109;BME280;46995;55.740;37.402;2023-08-01T06:42:05;99014.13;;;22.86;64.65
61109;BME280;46995;55.740;37.402;2023-08-01T06:44:31;99007.84;;;22.92;64.01
61109;BME280;46995;55.740;37.402;2023-08-01T06:46:57;99004.03;;;22.99;64.32
61109;BME280;46995;55.740;37.402;2023-08-01T06:49:23;98998.19;;;23.02;58.71
61109;BME280;46995;55.740;37.402;2023-08-01T06:51:49;99010.75;;;23.08;62.50
61109;BME280;46995;55.740;37.402;2023-08-01T06:54:14;99003.41;;;23.15;62.56
61109;BME280;46995;55.740;37.402;2023-08-01T06:56:40;99001.22;;;23.24;62.67
61109;BME280;46995;55.740;37.402;2023-08-01T06:59:11;99005.72;;;23.30;61.30
61109;BME280;46995;55.740;37.402;2023-08-01T07:01:39;99002.34;;;23.35;61.87
61109;BME280;46995;55.740;37.402;2023-08-01T07:04:06;98997.91;;;23.40;63.15
61109;BME280;46995;55.740;37.402;2023-08-01T07:06:34;99003.91;;;23.42;60.08
61109;BME280;46995;55.740;37.402;2023-08-01T07:08:59;98998.31;;;23.44;60.04
61109;BME280;46995;55.740;37.402;2023-08-01T07:11:25;98998.09;;;23.45;59.12
61109;BME280;46995;55.740;37.402;2023-08-01T07:13:50;98997.19;;;23.51;59.81
61109;BME280;46995;55.740;37.402;2023-08-01T07:16:24;99007.06;;;23.57;60.72
61109;BME280;46995;55.740;37.402;2023-08-01T07:18:49;99003.31;;;23.58;60.53
61109;BME280;46995;55.740;37.402;2023-08-01T07:21:16;99004.97;;;23.59;60.30
61109;BME280;46995;55.740;37.402;2023-08-01T07:23:42;99002.84;;;23.61;61.12
61109;BME280;46995;55.740;37.402;2023-08-01T07:26:07;99004.03;;;23.66;60.95
61109;BME280;46995;55.740;37.402;2023-08-01T07:28:37;99002.53;;;23.70;59.13
61109;BME280;46995;55.740;37.402;2023-08-01T07:31:04;98997.84;;;23.77;59.54
61109;BME280;46995;55.740;37.402;2023-08-01T07:33:30;99000.00;;;23.86;60.62
61109;BME280;46995;55.740;37.402;2023-08-01T07:35:56;98998.13;;;23.98;60.27
61109;BME280;46995;55.740;37.402;2023-08-01T07:38:21;98995.38;;;24.17;58.85
61109;BME280;46995;55.740;37.402;2023-08-01T07:40:47;99000.47;;;24.36;59.80
61109;BME280;46995;55.740;37.402;2023-08-01T07:43:13;98991.19;;;24.56;59.62
61109;BME280;46995;55.740;37.402;2023-08-01T07:45:38;98991.53;;;24.71;57.19
61109;BME280;46995;55.740;37.402;2023-08-01T07:48:04;99001.16;;;24.78;58.35
61109;BME280;46995;55.740;37.402;2023-08-01T07:50:30;98996.91;;;24.82;57.22
61109;BME280;46995;55.740;37.402;2023-08-01T07:52:56;98996.34;;;24.80;58.14
61109;BME280;46995;55.740;37.402;2023-08-01T07:55:21;98991.53;;;24.71;57.43
61109;BME280;46995;55.740;37.402;2023-08-01T07:57:47;98993.16;;;24.60;57.31
61109;BME280;46995;55.740;37.402;2023-08-01T08:00:13;98991.28;;;24.61;59.28
61109;BME280;46995;55.740;37.402;2023-08-01T08:02:39;98993.88;;;24.67;56.93
61109;BME280;46995;55.740;37.402;2023-08-01T08:05:04;98985.19;;;24.77;56.01
61109;BME280;46995;55.740;37.402;2023-08-01T08:07:30;98986.25;;;24.87;58.48
61109;BME280;46995;55.740;37.402;2023-08-01T08:09:56;98986.97;;;24.95;55.81
61109;BME280;46995;55.740;37.402;2023-08-01T08:12:22;98989.63;;;25.06;58.00
61109;BME280;46995;55.740;37.402;2023-08-01T08:14:48;98985.00;;;25.18;56.26
61109;BME280;46995;55.740;37.402;2023-08-01T08:17:14;98983.22;;;25.24;56.36
61109;BME280;46995;55.740;37.402;2023-08-01T08:19:40;98986.84;;;25.29;57.50
61109;BME280;46995;55.740;37.402;2023-08-01T08:22:06;98984.84;;;25.37;57.03
61109;BME280;46995;55.740;37.402;2023-08-01T08:24:32;98978.38;;;25.38;55.34
61109;BME280;46995;55.740;37.402;2023-08-01T08:26:57;98984.16;;;25.29;55.72
61109;BME280;46995;55.740;37.402;2023-08-01T08:29:23;98986.56;;;25.14;56.41
61109;BME280;46995;55.740;37.402;2023-08-01T08:31:48;98982.13;;;24.97;56.10
61109;BME280;46995;55.740;37.402;2023-08-01T08:34:14;98990.13;;;24.80;57.24
61109;BME280;46995;55.740;37.402;2023-08-01T08:36:40;98977.44;;;24.69;57.30
61109;BME280;46995;55.740;37.402;2023-08-01T08:39:05;98985.06;;;24.72;57.18
61109;BME280;46995;55.740;37.402;2023-08-01T08:41:35;98978.13;;;24.76;56.12
61109;BME280;46995;55.740;37.402;2023-08-01T08:44:02;98979.31;;;24.80;56.79
61109;BME280;46995;55.740;37.402;2023-08-01T08:46:30;98964.28;;;24.84;55.56
61109;BME280;46995;55.740;37.402;2023-08-01T08:48:58;98966.50;;;24.87;56.08
61109;BME280;46995;55.740;37.402;2023-08-01T08:51:26;98971.56;;;24.95;56.27
61109;BME280;46995;55.740;37.402;2023-08-01T08:53:53;98966.84;;;25.02;57.21
61109;BME280;46995;55.740;37.402;2023-08-01T08:56:19;98967.53;;;25.09;56.60
61109;BME280;46995;55.740;37.402;2023-08-01T08:58:45;98969.50;;;25.14;55.45
61109;BME280;46995;55.740;37.402;2023-08-01T09:01:12;98969.88;;;25.17;56.42
61109;BME280;46995;55.740;37.402;2023-08-01T09:03:38;98966.91;;;25.19;54.87
61109;BME280;46995;55.740;37.402;2023-08-01T09:06:04;98977.72;;;25.19;56.38
61109;BME280;46995;55.740;37.402;2023-08-01T09:08:32;98963.06;;;25.15;56.28
61109;BME280;46995;55.740;37.402;2023-08-01T09:11:00;98967.03;;;25.12;56.45
61109;BME280;46995;55.740;37.402;2023-08-01T09:13:26;98965.78;;;25.03;55.96
61109;BME280;46995;55.740;37.402;2023-08-01T09:15:51;98967.13;;;24.89;55.34
61109;BME280;46995;55.740;37.402;2023-08-01T09:18:17;98971.56;;;24.72;55.74
61109;BME280;46995;55.740;37.402;2023-08-01T09:20:46;98967.59;;;24.63;55.53
61109;BME280;46995;55.740;37.402;2023-08-01T09:23:12;98959.00;;;24.66;56.20
61109;BME280;46995;55.740;37.402;2023-08-01T09:25:38;98959.34;;;24.81;56.20
61109;BME280;46995;55.740;37.402;2023-08-01T09:28:14;98960.03;;;25.00;54.76
61109;BME280;46995;55.740;37.402;2023-08-01T09:30:51;98952.44;;;25.25;55.30
61109;BME280;46995;55.740;37.402;2023-08-01T09:33:17;98957.50;;;25.50;53.39
61109;BME280;46995;55.740;37.402;2023-08-01T09:35:43;98956.19;;;25.64;53.66
61109;BME280;46995;55.740;37.402;2023-08-01T09:38:14;98954.31;;;25.64;52.84
61109;BME280;46995;55.740;37.402;2023-08-01T09:40:40;98956.22;;;25.52;53.07
61109;BME280;46995;55.740;37.402;2023-08-01T09:43:06;98955.44;;;25.40;53.38
61109;BME280;46995;55.740;37.402;2023-08-01T09:45:32;98955.72;;;25.27;53.39
61109;BME280;46995;55.740;37.402;2023-08-01T09:47:59;98959.41;;;25.21;54.25
61109;BME280;46995;55.740;37.402;2023-08-01T09:50:25;98953.84;;;25.27;53.43
61109;BME280;46995;55.740;37.402;2023-08-01T09:52:51;98944.06;;;25.38;54.30
61109;BME280;46995;55.740;37.402;2023-08-01T09:55:32;98946.78;;;25.55;54.78
61109;BME280;46995;55.740;37.402;2023-08-01T09:57:58;98946.44;;;25.63;53.48
61109;BME280;46995;55.740;37.402;2023-08-01T10:00:28;98946.97;;;25.65;53.60
61109;BME280;46995;55.740;37.402;2023-08-01T10:02:57;98949.88;;;25.75;53.77
61109;BME280;46995;55.740;37.402;2023-08-01T10:05:26;98938.00;;;25.93;53.11
61109;BME280;46995;55.740;37.402;2023-08-01T10:07:54;98939.06;;;26.08;52.76
61109;BME280;46995;55.740;37.402;2023-08-01T10:10:21;98943.81;;;26.18;52.53
61109;BME280;46995;55.740;37.402;2023-08-01T10:12:47;98932.16;;;26.17;52.09
61109;BME280;46995;55.740;37.402;2023-08-01T10:15:15;98940.88;;;26.20;52.40
61109;BME280;46995;55.740;37.402;2023-08-01T10:17:41;98944.16;;;26.22;52.30
61109;BME280;46995;55.740;37.402;2023-08-01T10:20:06;98945.00;;;26.22;52.68
61109;BME280;46995;55.740;37.402;2023-08-01T10:22:32;98942.13;;;26.29;52.62
61109;BME280;46995;55.740;37.402;2023-08-01T10:24:59;98939.69;;;26.27;53.36
61109;BME280;46995;55.740;37.402;2023-08-01T10:27:25;98940.88;;;26.20;52.11
61109;BME280;46995;55.740;37.402;2023-08-01T10:29:57;98939.16;;;26.13;52.00
61109;BME280;46995;55.740;37.402;2023-08-01T10:32:30;98937.78;;;26.11;52.50
61109;BME280;46995;55.740;37.402;2023-08-01T10:34:56;98937.41;;;26.07;52.69
61109;BME280;46995;55.740;37.402;2023-08-01T10:37:22;98928.25;;;26.08;52.88
61109;BME280;46995;55.740;37.402;2023-08-01T10:39:55;98941.28;;;26.11;52.81
61109;BME280;46995;55.740;37.402;2023-08-01T10:42:21;98933.72;;;26.13;52.17
61109;BME280;46995;55.740;37.402;2023-08-01T10:44:46;98934.78;;;26.12;52.06
61109;BME280;46995;55.740;37.402;2023-08-01T10:47:12;98934.78;;;26.12;52.77
61109;BME280;46995;55.740;37.402;2023-08-01T10:49:41;98929.38;;;26.12;51.90
61109;BME280;46995;55.740;37.402;2023-08-01T10:52:17;98931.03;;;26.13;52.57
61109;BME280;46995;55.740;37.402;2023-08-01T10:54:55;98928.41;;;26.19;53.23
61109;BME280;46995;55.740;37.402;2023-08-01T10:57:21;98922.25;;;26.23;52.22
61109;BME280;46995;55.740;37.402;2023-08-01T10:59:46;98925.78;;;26.24;51.73
61109;BME280;46995;55.740;37.402;2023-08-01T11:02:18;98925.44;;;26.20;51.72
61109;BME280;46995;55.740;37.402;2023-08-01T11:04:44;98927.56;;;26.18;51.52
61109;BME280;46995;55.740;37.402;2023-08-01T11:07:19;98929.13;;;26.14;51.91
61109;BME280;46995;55.740;37.402;2023-08-01T11:09:45;98921.53;;;26.11;52.14
61109;BME280;46995;55.740;37.402;2023-08-01T11:12:13;98926.13;;;26.10;52.06
61109;BME280;46995;55.740;37.402;2023-08-01T11:14:39;98927.75;;;26.11;52.13
61109;BME280;46995;55.740;37.402;2023-08-01T11:17:04;98932.16;;;26.17;51.90
61109;BME280;46995;55.740;37.402;2023-08-01T11:19:30;98920.38;;;26.24;51.82
61109;BME280;46995;55.740;37.402;2023-08-01T11:21:59;98915.44;;;26.37;51.69
61109;BME280;46995;55.740;37.402;2023-08-01T11:24:33;98925.22;;;26.60;52.17
61109;BME280;46995;55.740;37.402;2023-08-01T11:26:59;98911.41;;;26.78;49.65
61109;BME280;46995;55.740;37.402;2023-08-01T11:29:24;98912.25;;;27.01;49.80
61109;BME280;46995;55.740;37.402;2023-08-01T11:31:57;98911.91;;;27.19;50.66
61109;BME280;46995;55.740;37.402;2023-08-01T11:34:23;98908.31;;;27.40;50.15
61109;BME280;46995;55.740;37.402;2023-08-01T11:36:49;98911.00;;;27.62;49.73
61109;BME280;46995;55.740;37.402;2023-08-01T11:39:16;98905.41;;;27.73;48.84
61109;BME280;46995;55.740;37.402;2023-08-01T11:41:42;98905.22;;;27.85;48.95
61109;BME280;46995;55.740;37.402;2023-08-01T11:44:08;98902.34;;;27.97;50.67
61109;BME280;46995;55.740;37.402;2023-08-01T11:46:36;98900.47;;;28.02;48.95
61109;BME280;46995;55.740;37.402;2023-08-01T11:49:02;98908.38;;;28.04;48.94
61109;BME280;46995;55.740;37.402;2023-08-01T11:51:28;98905.13;;;28.07;50.33
61109;BME280;46995;55.740;37.402;2023-08-01T11:54:01;98908.47;;;28.14;48.57
61109;BME280;46995;55.740;37.402;2023-08-01T11:56:27;98898.22;;;28.21;49.92
61109;BME280;46995;55.740;37.402;2023-08-01T11:58:53;98896.56;;;28.20;49.89
61109;BME280;46995;55.740;37.402;2023-08-01T12:01:18;98901.34;;;28.08;48.32
61109;BME280;46995;55.740;37.402;2023-08-01T12:06:09;98892.44;;;27.80;47.88
61109;BME280;46995;55.740;37.402;2023-08-01T12:08:37;98891.31;;;27.76;48.39
61109;BME280;46995;55.740;37.402;2023-08-01T12:11:05;98882.84;;;27.68;46.96
61109;BME280;46995;55.740;37.402;2023-08-01T12:13:30;98889.13;;;27.73;48.75
61109;BME280;46995;55.740;37.402;2023-08-01T12:15:56;98882.47;;;28.23;48.87
61109;BME280;46995;55.740;37.402;2023-08-01T12:18:22;98872.09;;;29.60;43.75
61109;BME280;46995;55.740;37.402;2023-08-01T12:20:48;98866.94;;;30.98;41.22
61109;BME280;46995;55.740;37.402;2023-08-01T12:23:14;98860.41;;;32.35;41.34
61109;BME280;46995;55.740;37.402;2023-08-01T12:25:39;98868.75;;;33.52;39.30
61109;BME280;46995;55.740;37.402;2023-08-01T12:28:05;98875.22;;;34.54;35.81
61109;BME280;46995;55.740;37.402;2023-08-01T12:30:30;98872.91;;;35.60;34.92
61109;BME280;46995;55.740;37.402;2023-08-01T12:32:56;98857.88;;;36.72;33.63
61109;BME280;46995;55.740;37.402;2023-08-01T12:35:22;98863.44;;;36.50;33.12
61109;BME280;46995;55.740;37.402;2023-08-01T12:37:47;98862.19;;;35.00;34.91
61109;BME280;46995;55.740;37.402;2023-08-01T12:40:13;98861.44;;;33.48;37.39
61109;BME280;46995;55.740;37.402;2023-08-01T12:42:38;98862.81;;;32.18;40.84
61109;BME280;46995;55.740;37.402;2023-08-01T12:45:04;98863.22;;;31.67;42.44
61109;BME280;46995;55.740;37.402;2023-08-01T12:47:30;98856.88;;;32.06;40.56
61109;BME280;46995;55.740;37.402;2023-08-01T12:49:55;98865.00;;;32.87;39.61